Time;durP1;ratioP1;P1;durP2;ratioP2;P2;SDS_P1;SDS_P2;PMS_P1;PMS_P2;Temp;Humidity;BMP_temperature;BMP_pressure;BME280_temperature;BME280_humidity;BME280_pressure;Samples;Min_cycle;Max_cycle;Signal;HPM_P1;HPM_P2
2023/03/07 00:02:10;;;;;;;;;;;4.30;99.90;;;;;;4992154;28;20000;-66
2023/03/07 00:04:36;;;;;;;;;;;4.20;99.90;;;;;;4983569;28;19918;-66
2023/03/07 00:07:01;;;;;;;;;;;4.30;99.90;;;;;;4995044;28;19917;-67
2023/03/07 00:09:27;;;;;;;;;;;4.30;99.90;;;;;;4993824;28;20304;-67
2023/03/07 00:11:52;;;;;;;;;;;4.30;99.90;;;;;;5002269;28;19925;-67
2023/03/07 00:14:18;;;;;;;;;;;4.30;99.90;;;;;;5000096;28;19925;-66
2023/03/07 00:16:43;;;;;;;;;;;4.30;99.90;;;;;;4997009;28;19957;-66
2023/03/07 00:19:10;;;;;;;;;;;4.30;99.90;;;;;;4997480;28;19922;-66
2023/03/07 00:21:41;;;;;;;;;;;4.30;99.90;;;;;;5011417;28;19925;-66
2023/03/07 00:24:08;;;;;;;;;;;4.30;99.90;;;;;;4999357;28;20361;-66
2023/03/07 00:26:38;;;;;;;;;;;4.30;99.90;;;;;;4994290;28;20859;-66
2023/03/07 00:29:04;;;;;;;;;;;4.30;99.90;;;;;;5001263;28;20020;-66
2023/03/07 00:31:33;;;;;;;;;;;4.30;99.90;;;;;;5000808;28;20399;-66
2023/03/07 00:33:58;;;;;;;;;;;4.40;99.90;;;;;;4990128;28;19918;-67
2023/03/07 00:36:24;;;;;;;;;;;4.40;99.90;;;;;;4995836;28;19987;-67
2023/03/07 00:38:50;;;;;;;;;;;4.30;99.90;;;;;;4995068;28;19924;-66
2023/03/07 00:41:17;;;;;;;;;;;4.30;99.90;;;;;;4997563;28;20001;-67
2023/03/07 00:43:45;;;;;;;;;;;4.30;99.90;;;;;;4986236;28;19925;-66
2023/03/07 00:46:13;;;;;;;;;;;4.30;99.90;;;;;;4979747;28;19917;-66
2023/03/07 00:48:39;;;;;;;;;;;4.30;99.90;;;;;;4991919;28;19988;-66
2023/03/07 00:51:05;;;;;;;;;;;4.30;99.90;;;;;;5001181;28;19929;-66
2023/03/07 00:53:31;;;;;;;;;;;4.30;99.90;;;;;;4983185;28;19917;-66
2023/03/07 00:56:01;;;;;;;;;;;4.30;99.90;;;;;;4990189;28;19928;-66
2023/03/07 00:58:28;;;;;;;;;;;4.30;99.90;;;;;;5001665;28;19918;-67
2023/03/07 01:00:54;;;;;;;;;;;4.30;99.90;;;;;;5003310;28;19934;-67
2023/03/07 01:03:20;;;;;;;;;;;4.30;99.90;;;;;;4990020;28;20283;-67
2023/03/07 01:05:46;;;;;;;;;;;4.30;99.90;;;;;;4992404;28;19929;-66
2023/03/07 01:08:11;;;;;;;;;;;4.30;99.90;;;;;;5001483;28;19918;-66
2023/03/07 01:10:37;;;;;;;;;;;4.30;99.90;;;;;;4989119;28;19925;-67
2023/03/07 01:13:03;;;;;;;;;;;4.30;99.90;;;;;;4997409;28;20320;-67
2023/03/07 01:15:29;;;;;;;;;;;4.30;99.90;;;;;;4997804;28;20297;-66
2023/03/07 01:17:54;;;;;;;;;;;4.20;99.90;;;;;;4997205;28;20465;-67
2023/03/07 01:20:20;;;;;;;;;;;4.20;99.90;;;;;;4995866;28;20349;-67
2023/03/07 01:22:45;;;;;;;;;;;4.20;99.90;;;;;;4975699;28;19944;-66
2023/03/07 01:25:12;;;;;;;;;;;4.20;99.90;;;;;;5001278;28;20388;-67
2023/03/07 01:27:38;;;;;;;;;;;4.20;99.90;;;;;;5000423;28;19932;-67
2023/03/07 01:30:04;;;;;;;;;;;4.20;99.90;;;;;;5000928;28;19937;-67
2023/03/07 01:32:31;;;;;;;;;;;4.20;99.90;;;;;;5002273;28;19917;-67
2023/03/07 01:34:57;;;;;;;;;;;4.20;99.90;;;;;;4995623;28;19918;-67
2023/03/07 01:37:22;;;;;;;;;;;4.10;99.90;;;;;;4999979;28;20403;-67
2023/03/07 01:39:52;;;;;;;;;;;4.10;99.90;;;;;;4996048;28;19932;-67
2023/03/07 01:42:18;;;;;;;;;;;4.10;99.90;;;;;;4988238;28;19984;-67
2023/03/07 01:44:59;;;;;;;;;;;4.10;99.90;;;;;;5001676;28;19922;-67
2023/03/07 01:47:24;;;;;;;;;;;4.10;99.90;;;;;;5010688;28;19968;-67
2023/03/07 01:49:50;;;;;;;;;;;4.10;99.90;;;;;;5008217;28;20369;-67
2023/03/07 01:52:24;;;;;;;;;;;4.00;99.90;;;;;;5005930;28;19946;-67
2023/03/07 01:54:52;;;;;;;;;;;4.10;99.90;;;;;;4984237;28;19967;-67
2023/03/07 01:57:19;;;;;;;;;;;4.00;99.90;;;;;;4999608;28;19935;-68
2023/03/07 01:59:45;;;;;;;;;;;4.00;99.90;;;;;;5007729;28;19929;-68
2023/03/07 02:02:15;;;;;;;;;;;4.00;99.90;;;;;;5000674;28;20376;-67
2023/03/07 02:04:43;;;;;;;;;;;4.00;99.90;;;;;;4997507;28;19983;-67
2023/03/07 02:07:09;;;;;;;;;;;4.00;99.90;;;;;;5002048;28;19917;-67
2023/03/07 02:09:35;;;;;;;;;;;4.00;99.90;;;;;;4997651;28;20016;-67
2023/03/07 02:12:01;;;;;;;;;;;4.00;99.90;;;;;;4996894;28;19917;-67
2023/03/07 02:14:27;;;;;;;;;;;3.90;99.90;;;;;;4987690;28;20369;-67
2023/03/07 02:16:52;;;;;;;;;;;3.90;99.90;;;;;;5012098;28;20023;-67
2023/03/07 02:19:23;;;;;;;;;;;3.90;99.90;;;;;;4992661;28;19917;-66
2023/03/07 02:22:09;;;;;;;;;;;3.80;99.90;;;;;;4992171;28;20297;-67
2023/03/07 02:24:44;;;;;;;;;;;3.80;99.90;;;;;;5003276;28;19917;-67
2023/03/07 02:27:10;;;;;;;;;;;3.80;99.90;;;;;;4992062;28;20027;-68
2023/03/07 02:29:35;;;;;;;;;;;3.80;99.90;;;;;;5001645;28;19979;-67
2023/03/07 02:32:01;;;;;;;;;;;3.80;99.90;;;;;;5004582;28;19924;-67
2023/03/07 02:34:28;;;;;;;;;;;3.70;99.90;;;;;;5005129;28;20113;-67
2023/03/07 02:36:57;;;;;;;;;;;3.80;99.90;;;;;;4995511;28;20035;-67
2023/03/07 02:39:24;;;;;;;;;;;3.80;99.90;;;;;;5022153;28;19975;-67
2023/03/07 02:41:52;;;;;;;;;;;3.80;99.90;;;;;;5019861;28;20411;-67
2023/03/07 02:44:17;;;;;;;;;;;3.70;99.90;;;;;;4994779;28;19924;-68
2023/03/07 02:46:43;;;;;;;;;;;3.70;99.90;;;;;;4991427;28;19922;-67
2023/03/07 02:49:08;;;;;;;;;;;3.70;99.90;;;;;;5004125;28;19971;-67
2023/03/07 02:51:34;;;;;;;;;;;3.70;99.90;;;;;;5000016;28;20005;-67
2023/03/07 02:53:59;;;;;;;;;;;3.70;99.90;;;;;;4997682;28;20333;-67
2023/03/07 02:56:25;;;;;;;;;;;3.60;99.90;;;;;;4998272;28;19917;-67
2023/03/07 02:58:50;;;;;;;;;;;3.60;99.90;;;;;;5017818;28;19924;-67
2023/03/07 03:01:16;;;;;;;;;;;3.50;99.90;;;;;;5017034;28;20277;-67
2023/03/07 03:03:41;;;;;;;;;;;3.50;99.90;;;;;;4996170;28;20427;-67
2023/03/07 03:06:07;;;;;;;;;;;3.50;99.90;;;;;;5001877;28;19917;-67
2023/03/07 03:08:32;;;;;;;;;;;3.50;99.90;;;;;;5016258;28;20361;-67
2023/03/07 03:10:58;;;;;;;;;;;3.40;99.90;;;;;;4992292;28;19918;-66
2023/03/07 03:13:24;;;;;;;;;;;3.40;99.90;;;;;;4997966;28;21223;-67
2023/03/07 03:15:53;;;;;;;;;;;3.50;99.90;;;;;;5000121;28;19929;-67
2023/03/07 03:18:19;;;;;;;;;;;3.50;99.90;;;;;;4996471;28;19918;-67
2023/03/07 03:20:44;;;;;;;;;;;3.50;99.90;;;;;;4991438;28;20048;-67
2023/03/07 03:23:10;;;;;;;;;;;3.60;99.90;;;;;;4999410;28;19967;-66
2023/03/07 03:25:35;;;;;;;;;;;3.60;99.90;;;;;;5016090;28;19933;-67
2023/03/07 03:28:01;;;;;;;;;;;3.60;99.90;;;;;;4994775;28;19918;-67
2023/03/07 03:30:31;;;;;;;;;;;3.50;99.90;;;;;;5000501;28;19922;-66
2023/03/07 03:32:57;;;;;;;;;;;3.50;99.90;;;;;;4999758;28;20153;-67
2023/03/07 03:35:22;;;;;;;;;;;3.50;99.90;;;;;;4999897;28;19917;-67
2023/03/07 03:37:48;;;;;;;;;;;3.40;99.90;;;;;;4999244;28;19932;-67
2023/03/07 03:40:16;;;;;;;;;;;3.40;99.90;;;;;;4994055;28;20294;-67
2023/03/07 03:42:42;;;;;;;;;;;3.40;99.90;;;;;;5008640;28;20035;-67
2023/03/07 03:45:09;;;;;;;;;;;3.40;99.90;;;;;;5000366;28;20365;-67
2023/03/07 03:47:34;;;;;;;;;;;3.30;99.90;;;;;;5013320;28;20019;-67
2023/03/07 03:50:00;;;;;;;;;;;3.40;99.90;;;;;;5016676;28;20425;-67
2023/03/07 03:52:25;;;;;;;;;;;3.30;99.90;;;;;;5001329;28;19925;-67
2023/03/07 03:54:51;;;;;;;;;;;3.40;99.90;;;;;;5020874;28;19917;-67
2023/03/07 03:57:19;;;;;;;;;;;3.40;99.90;;;;;;5000806;28;19917;-67
2023/03/07 03:59:45;;;;;;;;;;;3.40;99.90;;;;;;5000787;28;20340;-66
2023/03/07 04:02:10;;;;;;;;;;;3.50;99.90;;;;;;4997521;28;19963;-66
2023/03/07 04:04:36;;;;;;;;;;;3.50;99.90;;;;;;4983006;28;19922;-67
2023/03/07 04:07:03;;;;;;;;;;;3.50;99.90;;;;;;4996130;28;19936;-67
2023/03/07 04:09:29;;;;;;;;;;;3.50;99.90;;;;;;5016170;28;19929;-67
2023/03/07 04:11:54;;;;;;;;;;;3.50;99.90;;;;;;4992230;28;20468;-67
2023/03/07 04:14:20;;;;;;;;;;;3.50;99.90;;;;;;5003612;28;20428;-67
2023/03/07 04:16:46;;;;;;;;;;;3.50;99.90;;;;;;4995416;28;20124;-67
2023/03/07 04:19:11;;;;;;;;;;;3.60;99.90;;;;;;5012207;28;20393;-67
2023/03/07 04:21:40;;;;;;;;;;;3.50;99.90;;;;;;4992296;28;19974;-67
2023/03/07 04:24:06;;;;;;;;;;;3.50;99.90;;;;;;4994733;28;19924;-66
2023/03/07 04:26:32;;;;;;;;;;;3.50;99.90;;;;;;4998452;28;19928;-67
2023/03/07 04:28:58;;;;;;;;;;;3.60;99.90;;;;;;4994626;28;19921;-68
2023/03/07 04:31:25;;;;;;;;;;;3.60;99.90;;;;;;4991603;28;19921;-67
2023/03/07 04:33:51;;;;;;;;;;;3.60;99.90;;;;;;4999416;28;19925;-67
2023/03/07 04:36:16;;;;;;;;;;;3.50;99.90;;;;;;5000653;28;19917;-67
2023/03/07 04:38:42;;;;;;;;;;;3.50;99.90;;;;;;4996667;28;19917;-67
2023/03/07 04:41:18;;;;;;;;;;;3.50;99.90;;;;;;4994050;28;20009;-67
2023/03/07 04:43:44;;;;;;;;;;;3.50;99.90;;;;;;4996488;28;19925;-67
2023/03/07 04:46:11;;;;;;;;;;;3.50;99.90;;;;;;5017853;28;20083;-67
2023/03/07 04:48:37;;;;;;;;;;;3.40;99.90;;;;;;4999725;28;20292;-67
2023/03/07 04:51:05;;;;;;;;;;;3.50;99.90;;;;;;4994098;28;20012;-67
2023/03/07 04:53:31;;;;;;;;;;;3.40;99.90;;;;;;5000929;28;20028;-67
2023/03/07 04:56:00;;;;;;;;;;;3.50;99.90;;;;;;4999982;28;20351;-67
2023/03/07 04:58:26;;;;;;;;;;;3.50;99.90;;;;;;4997208;28;19933;-67
2023/03/07 05:00:52;;;;;;;;;;;3.40;99.90;;;;;;5019628;28;19931;-67
2023/03/07 05:03:17;;;;;;;;;;;3.50;99.90;;;;;;5046394;23;20564;-69
2023/03/07 05:05:43;;;;;;;;;;;3.50;99.90;;;;;;5050332;28;19921;-69
2023/03/07 05:08:08;;;;;;;;;;;3.50;99.90;;;;;;5027961;28;19928;-69
2023/03/07 05:10:34;;;;;;;;;;;3.50;99.90;;;;;;5052477;28;19970;-70
2023/03/07 05:13:00;;;;;;;;;;;3.50;99.90;;;;;;5031632;28;20407;-69
2023/03/07 05:15:26;;;;;;;;;;;3.50;99.90;;;;;;5032858;28;19928;-69
2023/03/07 05:17:51;;;;;;;;;;;3.50;99.90;;;;;;5040065;28;20366;-69
2023/03/07 05:20:18;;;;;;;;;;;3.50;99.90;;;;;;5039305;28;19920;-69
2023/03/07 05:22:43;;;;;;;;;;;3.50;99.90;;;;;;5042048;28;20007;-69
2023/03/07 05:25:09;;;;;;;;;;;3.50;99.90;;;;;;5041590;28;20019;-69
2023/03/07 05:27:34;;;;;;;;;;;3.50;99.90;;;;;;5036646;28;20322;-70
2023/03/07 05:30:00;;;;;;;;;;;3.50;99.90;;;;;;5037198;28;19921;-70
2023/03/07 05:32:26;;;;;;;;;;;3.50;99.90;;;;;;5034076;28;19917;-70
2023/03/07 05:34:51;;;;;;;;;;;3.60;99.90;;;;;;5019246;28;20387;-70
2023/03/07 05:37:17;;;;;;;;;;;3.60;99.90;;;;;;5042669;28;19986;-70
2023/03/07 05:39:42;;;;;;;;;;;3.70;99.90;;;;;;5037625;28;19979;-70
2023/03/07 05:42:08;;;;;;;;;;;3.70;99.90;;;;;;5031938;28;20369;-70
2023/03/07 05:44:33;;;;;;;;;;;3.70;99.90;;;;;;5039046;28;19987;-70
2023/03/07 05:46:59;;;;;;;;;;;3.60;99.90;;;;;;5033213;28;20008;-70
2023/03/07 05:49:24;;;;;;;;;;;3.70;99.90;;;;;;5044829;28;19999;-70
2023/03/07 05:51:50;;;;;;;;;;;3.60;99.90;;;;;;5037857;28;19979;-70
2023/03/07 05:54:16;;;;;;;;;;;3.60;99.90;;;;;;5040781;28;19978;-70
2023/03/07 05:56:42;;;;;;;;;;;3.60;99.90;;;;;;5044421;28;20011;-70
2023/03/07 05:59:10;;;;;;;;;;;3.50;99.90;;;;;;5053107;28;19971;-70
2023/03/07 06:01:35;;;;;;;;;;;3.50;99.90;;;;;;5020129;28;19921;-70
2023/03/07 06:04:01;;;;;;;;;;;3.40;99.90;;;;;;5034841;28;20364;-70
2023/03/07 06:06:27;;;;;;;;;;;3.30;99.90;;;;;;5034710;28;19916;-71
2023/03/07 06:08:52;;;;;;;;;;;3.20;99.90;;;;;;5035805;28;20273;-70
2023/03/07 06:11:18;;;;;;;;;;;3.20;99.90;;;;;;5032934;28;19924;-70
2023/03/07 06:13:43;;;;;;;;;;;3.20;99.90;;;;;;5034544;28;19975;-70
2023/03/07 06:16:09;;;;;;;;;;;3.20;99.90;;;;;;5032352;28;19924;-70
2023/03/07 06:18:34;;;;;;;;;;;3.20;99.90;;;;;;5035359;28;19917;-70
2023/03/07 06:21:01;;;;;;;;;;;3.20;99.90;;;;;;5041383;28;20504;-72
2023/03/07 06:23:27;;;;;;;;;;;3.20;99.90;;;;;;5029056;28;20424;-71
2023/03/07 06:25:53;;;;;;;;;;;3.20;99.90;;;;;;5048638;28;19920;-70
2023/03/07 06:28:19;;;;;;;;;;;3.20;99.90;;;;;;5039835;28;19967;-71
2023/03/07 06:30:44;;;;;;;;;;;3.20;99.90;;;;;;5019305;28;19925;-70
2023/03/07 06:33:10;;;;;;;;;;;3.20;99.90;;;;;;5037856;28;20280;-77
2023/03/07 06:35:39;;;;;;;;;;;3.10;99.90;;;;;;5039892;28;19924;-71
2023/03/07 06:38:05;;;;;;;;;;;3.10;99.90;;;;;;5017497;28;20813;-76
2023/03/07 06:40:31;;;;;;;;;;;3.00;99.90;;;;;;5035376;28;20265;-72
2023/03/07 06:42:56;;;;;;;;;;;3.00;99.90;;;;;;5039356;28;20008;-71
2023/03/07 06:45:22;;;;;;;;;;;2.90;99.90;;;;;;5037063;28;20394;-72
2023/03/07 06:47:48;;;;;;;;;;;2.90;99.90;;;;;;5036670;28;20174;-72
2023/03/07 06:50:13;;;;;;;;;;;2.90;99.90;;;;;;5037932;28;20431;-73
2023/03/07 06:52:39;;;;;;;;;;;2.90;99.90;;;;;;5035308;28;19920;-71
2023/03/07 06:55:04;;;;;;;;;;;2.90;99.90;;;;;;5037245;28;19968;-75
2023/03/07 06:57:33;;;;;;;;;;;2.90;99.90;;;;;;5032151;28;20015;-75
2023/03/07 06:59:59;;;;;;;;;;;2.80;99.90;;;;;;5038163;28;20129;-70
2023/03/07 07:02:24;;;;;;;;;;;2.80;99.90;;;;;;5034420;28;19921;-70
2023/03/07 07:04:50;;;;;;;;;;;2.80;99.90;;;;;;5033409;28;20379;-70
2023/03/07 07:07:16;;;;;;;;;;;2.80;99.90;;;;;;5030004;28;20494;-70
2023/03/07 07:09:41;;;;;;;;;;;2.80;99.90;;;;;;5028630;28;19948;-70
2023/03/07 07:12:07;;;;;;;;;;;2.90;99.90;;;;;;5032456;28;19927;-70
2023/03/07 07:14:33;;;;;;;;;;;2.90;99.90;;;;;;5032947;28;20268;-70
2023/03/07 07:16:59;;;;;;;;;;;2.90;99.90;;;;;;5036805;28;20365;-70
2023/03/07 07:19:25;;;;;;;;;;;2.90;99.90;;;;;;5037741;28;19916;-70
2023/03/07 07:21:51;;;;;;;;;;;2.80;99.90;;;;;;5050872;28;19973;-74
2023/03/07 07:24:19;;;;;;;;;;;2.80;99.90;;;;;;5055232;28;20373;-71
2023/03/07 07:26:45;;;;;;;;;;;2.80;99.90;;;;;;5035728;28;20231;-71
2023/03/07 07:29:10;;;;;;;;;;;2.80;99.90;;;;;;5036161;28;19995;-71
2023/03/07 07:31:36;;;;;;;;;;;2.80;99.90;;;;;;5027885;28;19921;-72
2023/03/07 07:34:02;;;;;;;;;;;2.90;99.90;;;;;;5034488;28;19991;-70
2023/03/07 07:36:27;;;;;;;;;;;2.90;99.90;;;;;;5034143;28;20313;-71
2023/03/07 07:38:53;;;;;;;;;;;2.90;99.90;;;;;;5042456;28;19928;-71
2023/03/07 07:41:19;;;;;;;;;;;2.90;99.90;;;;;;5033653;28;20062;-70
2023/03/07 07:43:47;;;;;;;;;;;2.90;99.90;;;;;;5034866;28;19924;-70
2023/03/07 07:46:12;;;;;;;;;;;2.90;99.90;;;;;;5038976;28;19925;-71
2023/03/07 07:48:38;;;;;;;;;;;2.90;99.90;;;;;;5037905;28;19932;-70
2023/03/07 07:51:04;;;;;;;;;;;3.00;99.90;;;;;;5035444;28;20363;-71
2023/03/07 07:53:30;;;;;;;;;;;3.00;99.90;;;;;;5052183;28;20272;-71
2023/03/07 07:55:56;;;;;;;;;;;3.00;99.90;;;;;;5043516;28;19917;-71
2023/03/07 07:58:21;;;;;;;;;;;3.10;99.90;;;;;;5033722;28;20361;-71
2023/03/07 08:00:47;;;;;;;;;;;3.10;99.90;;;;;;5033377;28;19925;-71
2023/03/07 08:03:12;;;;;;;;;;;3.10;99.90;;;;;;5038641;28;19932;-71
2023/03/07 08:05:42;;;;;;;;;;;3.10;99.90;;;;;;5036792;28;20019;-71
2023/03/07 08:08:08;;;;;;;;;;;3.20;99.90;;;;;;5031808;28;19931;-71
2023/03/07 08:10:34;;;;;;;;;;;3.20;99.90;;;;;;5034610;28;19925;-70
2023/03/07 08:13:00;;;;;;;;;;;3.20;99.90;;;;;;5035583;28;19943;-71
2023/03/07 08:15:25;;;;;;;;;;;3.30;99.90;;;;;;5035882;28;19917;-71
2023/03/07 08:17:51;;;;;;;;;;;3.30;99.90;;;;;;5036328;28;19916;-71
2023/03/07 08:20:21;;;;;;;;;;;3.40;99.90;;;;;;5051326;28;20111;-71
2023/03/07 08:22:47;;;;;;;;;;;3.50;99.90;;;;;;5029194;28;20020;-71
2023/03/07 08:25:15;;;;;;;;;;;3.40;99.90;;;;;;5030047;28;20366;-71
2023/03/07 08:27:41;;;;;;;;;;;3.50;99.90;;;;;;5050879;28;19917;-70
2023/03/07 08:30:07;;;;;;;;;;;3.50;99.90;;;;;;5027862;28;19927;-71
2023/03/07 08:32:32;;;;;;;;;;;3.50;99.90;;;;;;5038241;28;19966;-71
2023/03/07 08:34:58;;;;;;;;;;;3.60;99.90;;;;;;5032416;28;21376;-71
2023/03/07 08:37:23;;;;;;;;;;;3.60;99.90;;;;;;5024915;28;19968;-70
2023/03/07 08:39:49;;;;;;;;;;;3.60;99.90;;;;;;5029636;28;20413;-71
2023/03/07 08:42:14;;;;;;;;;;;3.70;99.90;;;;;;5031744;28;19946;-70
2023/03/07 08:44:40;;;;;;;;;;;3.70;99.90;;;;;;5028482;28;19982;-71
2023/03/07 08:47:05;;;;;;;;;;;3.70;99.90;;;;;;5026245;28;19963;-70
2023/03/07 08:49:31;;;;;;;;;;;3.70;99.90;;;;;;5030893;28;20038;-71
2023/03/07 08:51:57;;;;;;;;;;;3.60;99.90;;;;;;5037692;28;19920;-71
2023/03/07 08:54:22;;;;;;;;;;;3.30;99.90;;;;;;5035628;28;20410;-71
2023/03/07 08:56:48;;;;;;;;;;;3.10;99.90;;;;;;5030593;28;20091;-71
2023/03/07 08:59:13;;;;;;;;;;;3.00;99.90;;;;;;5017424;28;20281;-71
2023/03/07 09:01:39;;;;;;;;;;;2.90;99.90;;;;;;5027039;28;20285;-71
2023/03/07 09:04:04;;;;;;;;;;;2.90;99.90;;;;;;5032416;28;19917;-71
2023/03/07 09:06:30;;;;;;;;;;;2.80;99.90;;;;;;5030138;28;20008;-71
2023/03/07 09:08:55;;;;;;;;;;;2.80;99.90;;;;;;5036908;28;19973;-71
2023/03/07 09:11:21;;;;;;;;;;;2.80;99.90;;;;;;5022309;28;20395;-71
2023/03/07 09:13:46;;;;;;;;;;;2.70;99.90;;;;;;5037658;28;19917;-71
2023/03/07 09:16:12;;;;;;;;;;;2.70;99.90;;;;;;5035433;28;19927;-71
2023/03/07 09:18:38;;;;;;;;;;;2.60;99.90;;;;;;5036812;28;19917;-71
2023/03/07 09:21:04;;;;;;;;;;;2.60;99.90;;;;;;5031295;28;19929;-71
2023/03/07 09:23:30;;;;;;;;;;;2.70;99.90;;;;;;5034859;28;20018;-70
2023/03/07 09:25:59;;;;;;;;;;;2.70;99.90;;;;;;5034489;28;19968;-69
2023/03/07 09:28:24;;;;;;;;;;;2.80;99.90;;;;;;5040434;28;20005;-70
2023/03/07 09:30:50;;;;;;;;;;;2.80;99.90;;;;;;5040650;28;20383;-70
2023/03/07 09:33:16;;;;;;;;;;;2.90;99.90;;;;;;5032158;28;20012;-70
2023/03/07 09:35:41;;;;;;;;;;;3.00;99.90;;;;;;5047819;28;19927;-70
2023/03/07 09:38:07;;;;;;;;;;;3.00;99.90;;;;;;5033174;28;19917;-70
2023/03/07 09:40:32;;;;;;;;;;;3.10;99.90;;;;;;5036460;28;19996;-70
2023/03/07 09:42:58;;;;;;;;;;;3.20;99.90;;;;;;5034126;28;19916;-70
2023/03/07 09:45:36;;;;;;;;;;;3.20;99.90;;;;;;5033119;28;19928;-71
2023/03/07 09:48:08;;;;;;;;;;;3.30;99.90;;;;;;5030378;28;19917;-70
2023/03/07 09:50:48;;;;;;;;;;;3.40;99.90;;;;;;5035870;28;19925;-70
2023/03/07 09:53:32;;;;;;;;;;;3.40;99.90;;;;;;5031478;28;20379;-70
2023/03/07 09:56:00;;;;;;;;;;;3.50;99.90;;;;;;5035987;28;19966;-70
2023/03/07 09:58:26;;;;;;;;;;;3.60;99.90;;;;;;5034464;28;20357;-70
2023/03/07 10:00:56;;;;;;;;;;;3.60;99.90;;;;;;5035685;28;19964;-70
2023/03/07 10:03:34;;;;;;;;;;;3.70;99.90;;;;;;5026602;28;19960;-70
2023/03/07 10:06:19;;;;;;;;;;;3.80;99.90;;;;;;5039034;28;19959;-70
2023/03/07 10:08:45;;;;;;;;;;;3.90;99.90;;;;;;5017149;28;20173;-70
2023/03/07 10:11:10;;;;;;;;;;;3.90;99.90;;;;;;5041355;28;20028;-70
2023/03/07 10:13:48;;;;;;;;;;;4.00;99.90;;;;;;5032441;28;19916;-71
2023/03/07 10:16:14;;;;;;;;;;;4.00;99.90;;;;;;5040029;28;20028;-70
2023/03/07 10:18:46;;;;;;;;;;;4.10;99.90;;;;;;5032146;28;19999;-70
2023/03/07 10:21:11;;;;;;;;;;;4.20;99.90;;;;;;5028461;28;20317;-70
2023/03/07 10:23:43;;;;;;;;;;;4.30;99.90;;;;;;5035462;28;19978;-70
2023/03/07 10:26:18;;;;;;;;;;;4.30;99.90;;;;;;5029021;28;19927;-70
2023/03/07 10:28:44;;;;;;;;;;;4.30;99.90;;;;;;5033518;28;19921;-70
2023/03/07 10:31:19;;;;;;;;;;;4.30;99.90;;;;;;5035166;28;19917;-70
2023/03/07 10:33:46;;;;;;;;;;;4.20;99.90;;;;;;5038903;28;20293;-70
2023/03/07 10:36:18;;;;;;;;;;;4.10;99.90;;;;;;5035933;28;20402;-70
2023/03/07 10:38:44;;;;;;;;;;;4.00;99.90;;;;;;5029693;28;19940;-70
2023/03/07 10:41:14;;;;;;;;;;;3.90;99.90;;;;;;5031465;28;19996;-70
2023/03/07 10:43:41;;;;;;;;;;;3.90;99.90;;;;;;5032963;28;19939;-70
2023/03/07 10:46:10;;;;;;;;;;;3.90;99.90;;;;;;5029894;28;20008;-70
2023/03/07 10:48:37;;;;;;;;;;;3.80;99.90;;;;;;5053988;28;19932;-71
2023/03/07 10:51:15;;;;;;;;;;;3.80;99.90;;;;;;5031980;28;19921;-72
2023/03/07 10:53:40;;;;;;;;;;;3.80;99.90;;;;;;5031144;28;19921;-70
2023/03/07 10:56:12;;;;;;;;;;;3.80;99.90;;;;;;5033816;28;20642;-71
2023/03/07 10:58:38;;;;;;;;;;;3.80;99.90;;;;;;5027861;28;19916;-69
2023/03/07 11:01:03;;;;;;;;;;;3.80;99.90;;;;;;5027533;28;19940;-70
2023/03/07 11:03:52;;;;;;;;;;;3.90;99.90;;;;;;5026721;28;20281;-70
2023/03/07 11:06:24;;;;;;;;;;;4.00;99.90;;;;;;5016496;28;19927;-70
2023/03/07 11:08:49;;;;;;;;;;;4.10;99.90;;;;;;5023083;28;19999;-70
2023/03/07 11:11:21;;;;;;;;;;;4.20;99.90;;;;;;5030478;28;19952;-70
2023/03/07 11:14:03;;;;;;;;;;;4.30;99.90;;;;;;5030476;28;20351;-70
2023/03/07 11:16:29;;;;;;;;;;;4.40;99.90;;;;;;5029595;28;20422;-70
2023/03/07 11:18:55;;;;;;;;;;;4.50;99.90;;;;;;5033928;28;19921;-70
2023/03/07 11:21:29;;;;;;;;;;;4.60;99.90;;;;;;5029109;28;19929;-70
2023/03/07 11:23:58;;;;;;;;;;;4.60;99.90;;;;;;5041403;23;20143;-70
2023/03/07 11:26:23;;;;;;;;;;;4.70;99.90;;;;;;5002896;28;20424;-70
2023/03/07 11:29:06;;;;;;;;;;;4.80;99.90;;;;;;5016266;28;20073;-70
2023/03/07 11:31:36;;;;;;;;;;;4.80;99.90;;;;;;4987692;28;20407;-70
2023/03/07 11:34:08;;;;;;;;;;;4.90;99.90;;;;;;5022956;28;19917;-70
2023/03/07 11:36:34;;;;;;;;;;;5.00;99.90;;;;;;5021985;28;21051;-71
2023/03/07 11:39:14;;;;;;;;;;;5.20;99.90;;;;;;5001036;28;20377;-70
2023/03/07 11:41:40;;;;;;;;;;;5.30;99.90;;;;;;5011174;28;19956;-70
2023/03/07 11:44:21;;;;;;;;;;;5.50;99.90;;;;;;5015968;28;19921;-70
2023/03/07 11:46:59;;;;;;;;;;;5.60;99.90;;;;;;4977130;28;19925;-70
2023/03/07 11:49:43;;;;;;;;;;;5.70;99.90;;;;;;5018044;28;19951;-70
2023/03/07 11:52:28;;;;;;;;;;;5.70;99.90;;;;;;4988143;28;20312;-71
2023/03/07 11:55:12;;;;;;;;;;;5.80;99.90;;;;;;4984087;28;20235;-70
2023/03/07 11:58:01;;;;;;;;;;;5.80;99.90;;;;;;4978648;28;20545;-70
2023/03/07 12:00:26;;;;;;;;;;;5.70;99.90;;;;;;5005885;28;20745;-70
2023/03/07 12:03:04;;;;;;;;;;;5.60;99.90;;;;;;4982161;28;20012;-69
2023/03/07 12:05:30;;;;;;;;;;;5.50;99.90;;;;;;4979738;28;19921;-69
2023/03/07 12:08:01;;;;;;;;;;;5.40;99.90;;;;;;4995971;28;19927;-70
2023/03/07 12:10:46;;;;;;;;;;;5.30;99.90;;;;;;5014442;28;19972;-71
2023/03/07 12:13:30;;;;;;;;;;;5.40;99.90;;;;;;4980506;28;20380;-70
2023/03/07 12:16:14;;;;;;;;;;;5.50;99.90;;;;;;4996984;28;19927;-70
2023/03/07 12:18:42;;;;;;;;;;;5.60;99.90;;;;;;4999093;28;19932;-70
2023/03/07 12:21:23;;;;;;;;;;;5.70;99.90;;;;;;4980487;28;19975;-70
2023/03/07 12:24:00;;;;;;;;;;;5.70;99.90;;;;;;5011904;28;19935;-70
2023/03/07 12:26:55;;;;;;;;;;;5.60;99.90;;;;;;4997752;28;20008;-70
2023/03/07 12:29:34;;;;;;;;;;;5.50;99.90;;;;;;4978297;28;19924;-70
2023/03/07 12:32:03;;;;;;;;;;;5.50;99.90;;;;;;4976476;28;19953;-70
2023/03/07 12:34:58;;;;;;;;;;;5.50;99.90;;;;;;5003970;28;19929;-70
2023/03/07 12:37:23;;;;;;;;;;;5.40;99.90;;;;;;4956737;28;20340;-71
2023/03/07 12:40:03;;;;;;;;;;;5.40;99.90;;;;;;4991772;28;20016;-71
2023/03/07 12:42:28;;;;;;;;;;;5.40;99.90;;;;;;4997224;28;19917;-70
2023/03/07 12:44:57;;;;;;;;;;;5.40;99.90;;;;;;4977647;28;19924;-71
2023/03/07 12:47:26;;;;;;;;;;;5.40;99.90;;;;;;4979461;28;19932;-70
2023/03/07 12:49:59;;;;;;;;;;;5.40;99.90;;;;;;4976435;28;19917;-71
2023/03/07 12:52:39;;;;;;;;;;;5.40;99.90;;;;;;5010499;28;20364;-71
2023/03/07 12:55:14;;;;;;;;;;;5.40;99.90;;;;;;5009242;28;19921;-70
2023/03/07 12:57:44;;;;;;;;;;;5.40;99.90;;;;;;5001172;28;19918;-70
2023/03/07 13:00:11;;;;;;;;;;;5.40;99.90;;;;;;4979237;28;20020;-70
2023/03/07 13:02:40;;;;;;;;;;;5.40;99.90;;;;;;4974498;28;20373;-70
2023/03/07 13:05:12;;;;;;;;;;;5.40;99.90;;;;;;5018833;28;19917;-70
2023/03/07 13:07:39;;;;;;;;;;;5.40;99.90;;;;;;5002585;28;19933;-70
2023/03/07 13:10:05;;;;;;;;;;;5.50;99.90;;;;;;5016504;28;19925;-71
2023/03/07 13:12:32;;;;;;;;;;;5.50;99.90;;;;;;5013289;28;21411;-70
2023/03/07 13:15:01;;;;;;;;;;;5.40;99.90;;;;;;4989501;28;19925;-71
2023/03/07 13:17:30;;;;;;;;;;;5.40;99.90;;;;;;5001674;28;19964;-70
2023/03/07 13:19:55;;;;;;;;;;;5.30;99.90;;;;;;4998759;28;19936;-70
2023/03/07 13:22:21;;;;;;;;;;;5.30;99.90;;;;;;5003021;28;20450;-70
2023/03/07 13:24:50;;;;;;;;;;;5.10;99.90;;;;;;4998334;28;19925;-70
2023/03/07 13:27:26;;;;;;;;;;;5.10;99.90;;;;;;4985197;28;19929;-71
2023/03/07 13:30:07;;;;;;;;;;;5.00;99.90;;;;;;5017024;28;19918;-70
2023/03/07 13:32:50;;;;;;;;;;;5.00;99.90;;;;;;5001229;28;20720;-71
2023/03/07 13:35:32;;;;;;;;;;;5.00;99.90;;;;;;5018945;28;19985;-71
2023/03/07 13:37:58;;;;;;;;;;;5.10;99.90;;;;;;4982405;28;20438;-71
2023/03/07 13:40:29;;;;;;;;;;;5.20;99.90;;;;;;4997942;28;19925;-71
2023/03/07 13:42:55;;;;;;;;;;;5.50;99.90;;;;;;5002620;28;20450;-71
2023/03/07 13:45:36;;;;;;;;;;;5.60;99.90;;;;;;4968395;28;19917;-71
2023/03/07 13:48:02;;;;;;;;;;;5.70;99.90;;;;;;4999582;28;20020;-70
2023/03/07 13:50:34;;;;;;;;;;;5.60;99.90;;;;;;4984648;28;19983;-70
2023/03/07 13:53:01;;;;;;;;;;;5.80;99.90;;;;;;4994321;28;19922;-71
2023/03/07 13:55:29;;;;;;;;;;;5.60;99.90;;;;;;5011051;28;19961;-70
2023/03/07 13:57:55;;;;;;;;;;;5.60;99.90;;;;;;5002010;28;19948;-71
2023/03/07 14:00:23;;;;;;;;;;;5.60;99.90;;;;;;5015864;28;19929;-71
2023/03/07 14:02:50;;;;;;;;;;;5.50;99.90;;;;;;4984922;28;19956;-71
2023/03/07 14:05:16;;;;;;;;;;;5.50;99.90;;;;;;4983472;28;20355;-71
2023/03/07 14:07:41;;;;;;;;;;;5.50;99.90;;;;;;5000522;28;19922;-71
2023/03/07 14:10:11;;;;;;;;;;;5.50;99.90;;;;;;4984444;28;20092;-71
2023/03/07 14:12:56;;;;;;;;;;;5.50;99.90;;;;;;4984906;28;19917;-66
2023/03/07 14:15:25;;;;;;;;;;;5.40;99.90;;;;;;5019668;28;19925;-70
2023/03/07 14:17:54;;;;;;;;;;;5.40;99.90;;;;;;4987719;28;20407;-70
2023/03/07 14:20:22;;;;;;;;;;;5.40;99.90;;;;;;5003554;28;19924;-69
2023/03/07 14:23:00;;;;;;;;;;;5.40;99.90;;;;;;4990163;28;19921;-69
2023/03/07 14:25:36;;;;;;;;;;;5.30;99.90;;;;;;4990546;28;20016;-69
2023/03/07 14:28:16;;;;;;;;;;;5.20;99.90;;;;;;4981643;28;19928;-69
2023/03/07 14:30:51;;;;;;;;;;;5.30;99.90;;;;;;4986332;28;20163;-69
2023/03/07 14:33:16;;;;;;;;;;;5.30;99.90;;;;;;5001095;28;19917;-69
2023/03/07 14:35:43;;;;;;;;;;;5.30;99.90;;;;;;4987743;28;19921;-70
2023/03/07 14:38:28;;;;;;;;;;;5.30;99.90;;;;;;5011908;28;20003;-70